Time;durP1;ratioP1;P1;durP2;ratioP2;P2;SDS_P1;SDS_P2;PMS_P1;PMS_P2;Temp;Humidity;BMP_temperature;BMP_pressure;BME280_temperature;BME280_humidity;BME280_pressure;Samples;Min_cycle;Max_cycle;Signal;HPM_P1;HPM_P2
2022/01/19 00:01:23;;;;;;;19.73;8.50;;;;;;;6.58;62.18;103219.09;4991391;28;112920;-74
2022/01/19 00:03:51;;;;;;;23.33;8.80;;;;;;;6.57;61.87;103218.22;4990353;28;124247;-74
2022/01/19 00:06:18;;;;;;;18.60;8.73;;;;;;;6.54;61.72;103225.19;4988215;28;122784;-74
2022/01/19 00:08:45;;;;;;;19.75;8.38;;;;;;;6.52;62.07;103214.63;4987296;28;115129;-75
2022/01/19 00:11:13;;;;;;;17.58;8.93;;;;;;;6.50;61.86;103223.38;4990741;28;114894;-74
2022/01/19 00:13:40;;;;;;;20.55;8.80;;;;;;;6.43;61.55;103220.69;4990370;28;125317;-74
2022/01/19 00:16:08;;;;;;;19.23;8.48;;;;;;;6.40;61.95;103227.66;4987708;28;123769;-74
2022/01/19 00:18:36;;;;;;;16.83;7.72;;;;;;;6.36;61.81;103224.09;4990217;28;113449;-74
2022/01/19 00:21:04;;;;;;;17.27;7.65;;;;;;;6.32;61.64;103222.31;4993105;28;112813;-74
2022/01/19 00:23:31;;;;;;;25.92;8.95;;;;;;;6.30;61.65;103217.91;4999129;28;123760;-74
2022/01/19 00:25:58;;;;;;;25.13;10.05;;;;;;;6.26;61.71;103206.47;4992074;28;123015;-74
2022/01/19 00:28:26;;;;;;;25.95;10.02;;;;;;;6.25;62.04;103194.16;4992554;28;114457;-74
2022/01/19 00:30:56;;;;;;;27.45;10.25;;;;;;;6.23;61.92;103180.09;4989008;28;114775;-74
2022/01/19 00:33:24;;;;;;;24.80;9.48;;;;;;;6.20;61.62;103148.53;4971734;28;123297;-74
2022/01/19 00:35:51;;;;;;;25.98;10.43;;;;;;;6.16;61.67;103136.16;4986459;28;123583;-74
2022/01/19 00:38:19;;;;;;;21.52;9.90;;;;;;;6.15;61.67;103129.16;4988426;28;114293;-74
2022/01/19 00:40:46;;;;;;;22.63;9.55;;;;;;;6.11;62.08;103127.38;4991057;28;112552;-74
2022/01/19 00:43:14;;;;;;;24.88;10.27;;;;;;;6.09;61.94;103129.09;4989458;28;124525;-74
2022/01/19 00:45:43;;;;;;;27.98;9.48;;;;;;;6.07;62.08;103133.47;4987813;28;123630;-74
2022/01/19 00:48:25;;;;;;;24.42;10.15;;;;;;;6.03;61.82;103136.06;4988399;28;114326;-74
2022/01/19 00:50:52;;;;;;;28.23;10.15;;;;;;;6.01;61.74;103147.44;4990082;28;114382;-74
2022/01/19 00:53:19;;;;;;;27.60;10.45;;;;;;;5.99;61.72;103147.41;4987667;28;123766;-74
2022/01/19 00:55:47;;;;;;;32.05;9.60;;;;;;;5.95;61.80;103148.25;4988928;28;124220;-74
2022/01/19 00:58:14;;;;;;;21.23;9.15;;;;;;;5.92;62.14;103153.44;4988138;28;115473;-74
2022/01/19 01:00:41;;;;;;;20.10;9.23;;;;;;;5.91;62.38;103156.91;4989538;28;115276;-74
2022/01/19 01:03:10;;;;;;;25.33;8.98;;;;;;;5.89;62.07;103142.88;4986741;28;124744;-74
2022/01/19 01:05:38;;;;;;;28.52;9.32;;;;;;;5.88;62.08;103130.59;4988847;28;123891;-74
2022/01/19 01:08:05;;;;;;;34.95;10.07;;;;;;;5.86;62.25;103127.06;4981965;28;113551;-74
2022/01/19 01:10:40;;;;;;;24.10;10.00;;;;;;;5.83;62.25;103111.25;4988166;28;113691;-74
2022/01/19 01:18:28;;;;;;;23.25;9.80;;;;;;;5.81;62.23;103099.84;4988039;28;113726;-74
2022/01/19 01:20:59;;;;;;;22.92;9.40;;;;;;;5.83;62.28;103100.72;4988212;28;113266;-74
2022/01/19 01:23:32;;;;;;;20.90;9.30;;;;;;;5.82;62.22;103101.59;4987167;28;123699;-74
2022/01/19 01:26:00;;;;;;;20.88;8.65;;;;;;;5.82;62.17;103088.44;4986853;28;122041;-74
2022/01/19 01:28:27;;;;;;;18.42;8.05;;;;;;;5.82;62.14;103083.16;4988250;28;113723;-74
2022/01/19 01:30:55;;;;;;;16.52;8.00;;;;;;;5.80;62.11;103082.28;4993320;28;113829;-74
2022/01/19 01:33:22;;;;;;;17.42;8.07;;;;;;;5.79;62.28;103083.16;4988499;28;124348;-73
2022/01/19 01:35:49;;;;;;;18.58;8.30;;;;;;;5.80;62.29;103079.66;4988746;28;124962;-74
2022/01/19 01:38:17;;;;;;;18.45;8.40;;;;;;;5.81;62.46;103049.88;4974590;28;112368;-74
2022/01/19 01:41:09;;;;;;;19.75;8.43;;;;;;;5.81;62.30;103039.34;5003976;28;113262;-74
2022/01/19 01:43:37;;;;;;;18.88;8.73;;;;;;;5.83;62.33;103032.34;4982794;28;123671;-74
2022/01/19 01:46:11;;;;;;;18.27;8.75;;;;;;;5.83;62.42;103021.84;4970553;28;123890;-74
2022/01/19 01:48:44;;;;;;;21.45;9.25;;;;;;;5.83;62.21;103025.34;4985754;28;115597;-74
2022/01/19 01:54:00;;;;;;;17.27;8.07;;;;;;;5.80;61.95;103032.31;4986899;28;123056;-74
2022/01/19 01:56:27;;;;;;;21.58;8.50;;;;;;;5.76;62.35;103020.00;4995447;28;123083;-74
2022/01/19 01:59:01;;;;;;;22.13;9.15;;;;;;;5.72;62.28;103007.69;4987841;28;113540;-74
2022/01/19 02:01:29;;;;;;;21.88;9.32;;;;;;;5.71;62.44;103016.44;4988589;28;113953;-74
2022/01/19 02:03:58;;;;;;;23.02;8.65;;;;;;;5.71;62.38;103019.06;4973271;28;124762;-74
2022/01/19 02:06:36;;;;;;;22.83;8.68;;;;;;;5.68;62.49;103013.81;4988414;28;123937;-74
2022/01/19 02:09:24;;;;;;;18.17;8.17;;;;;;;5.69;62.63;103010.28;4975834;28;114118;-74
2022/01/19 02:25:58;;;;;;;20.65;8.50;;;;;;;5.58;62.42;102957.63;4983460;28;124333;-74
2022/01/19 02:42:24;;;;;;;21.25;8.55;;;;;;;5.58;62.48;102921.69;4951688;28;114896;-74
2022/01/19 02:49:51;;;;;;;23.38;9.98;;;;;;;5.50;62.18;102897.13;4985999;28;123223;-74
2022/01/19 02:52:19;;;;;;;22.80;9.07;;;;;;;5.47;62.55;102897.06;4986171;28;113105;-74
2022/01/19 02:54:48;;;;;;;20.70;9.07;;;;;;;5.48;62.32;102888.31;4986459;28;113304;-74
2022/01/19 02:57:16;;;;;;;23.88;9.40;;;;;;;5.44;62.28;102881.25;4986158;28;123635;-74
2022/01/19 03:10:41;;;;;;;29.40;10.52;;;;;;;5.42;62.83;102833.06;5001476;28;123427;-74
2022/01/19 03:13:09;;;;;;;24.58;9.68;;;;;;;5.44;63.08;102823.44;4988038;28;113143;-73
2022/01/19 03:15:36;;;;;;;24.25;10.43;;;;;;;5.48;63.17;102804.22;4995207;28;113775;-74
2022/01/19 03:18:03;;;;;;;28.63;9.90;;;;;;;5.51;62.87;102788.47;4986054;28;123634;-74
2022/01/19 03:20:30;;;;;;;25.80;10.43;;;;;;;5.55;63.24;102803.38;4967450;28;123371;-74
2022/01/19 03:25:25;;;;;;;22.60;9.18;;;;;;;5.60;63.20;102804.31;4987799;28;114383;-74
2022/01/19 03:27:52;;;;;;;22.20;9.85;;;;;;;5.62;63.05;102802.56;4985361;28;123304;-74
2022/01/19 03:30:20;;;;;;;24.45;9.35;;;;;;;5.63;62.69;102793.84;4985687;28;123453;-74
2022/01/19 03:32:48;;;;;;;24.40;9.95;;;;;;;5.64;63.07;102800.84;4985377;28;114940;-74
2022/01/19 03:35:16;;;;;;;24.00;10.02;;;;;;;5.65;62.93;102802.59;4985747;28;114608;-74
2022/01/19 03:37:44;;;;;;;22.27;9.50;;;;;;;5.66;63.24;102804.34;5000072;28;123821;-74
2022/01/19 03:40:12;;;;;;;25.58;9.80;;;;;;;5.64;62.72;102792.94;4988693;28;124571;-74
2022/01/19 03:42:40;;;;;;;22.80;9.32;;;;;;;5.66;62.96;102782.44;4989028;28;113673;-74
2022/01/19 03:45:09;;;;;;;24.17;9.38;;;;;;;5.66;63.04;102782.44;5000599;28;113145;-74
2022/01/19 03:47:45;;;;;;;28.13;9.95;;;;;;;5.66;62.84;102777.19;4988991;28;123638;-74
2022/01/19 03:50:12;;;;;;;22.42;8.75;;;;;;;5.65;62.95;102771.06;4989231;28;123345;-74
2022/01/19 03:52:42;;;;;;;20.70;9.95;;;;;;;5.66;62.85;102762.28;4989108;28;113527;-74
2022/01/19 03:55:11;;;;;;;21.30;9.68;;;;;;;5.65;62.73;102764.91;4988213;28;115381;-74
2022/01/19 03:57:38;;;;;;;22.65;9.65;;;;;;;5.65;62.96;102754.38;4990319;28;123812;-74
2022/01/19 04:00:07;;;;;;;26.00;9.73;;;;;;;5.64;62.74;102737.75;4988950;28;123223;-74
2022/01/19 04:02:43;;;;;;;22.52;10.20;;;;;;;5.63;62.68;102751.78;4991090;28;115031;-74
2022/01/19 04:05:20;;;;;;;25.05;9.43;;;;;;;5.63;62.85;102746.53;4985978;28;113090;-74
2022/01/19 04:07:47;;;;;;;24.98;10.13;;;;;;;5.62;62.84;102750.00;4987436;28;124318;-74
2022/01/19 04:10:16;;;;;;;26.35;9.07;;;;;;;5.63;62.92;102754.41;4988494;28;123805;-74
2022/01/19 04:12:56;;;;;;;22.60;9.45;;;;;;;5.62;63.01;102757.88;4989298;28;113409;-74
2022/01/19 04:15:24;;;;;;;24.45;9.27;;;;;;;5.62;63.01;102754.38;4987115;28;114853;-74
2022/01/19 04:17:52;;;;;;;21.98;9.82;;;;;;;5.62;63.03;102744.75;4999493;28;125462;-74
2022/01/19 04:20:24;;;;;;;21.23;9.10;;;;;;;5.61;62.81;102748.25;4988324;28;123032;-74
2022/01/19 04:22:56;;;;;;;20.77;9.88;;;;;;;5.61;63.16;102735.13;4986769;28;114917;-74
2022/01/19 04:25:23;;;;;;;23.88;9.95;;;;;;;5.59;63.15;102734.19;4988452;28;114206;-74
2022/01/19 04:27:50;;;;;;;20.15;8.93;;;;;;;5.59;62.79;102747.34;4990409;28;124322;-74
2022/01/19 04:30:18;;;;;;;20.08;9.43;;;;;;;5.60;63.08;102741.22;4995535;28;122973;-74
2022/01/19 04:35:31;;;;;;;19.67;9.13;;;;;;;5.62;62.88;102743.88;4992613;28;113593;-74
2022/01/19 05:03:40;;;;;;;22.65;10.23;;;;;;;5.50;63.04;102702.63;4965649;28;124746;-74
2022/01/19 05:06:17;;;;;;;27.63;10.50;;;;;;;5.53;63.05;102705.25;4972629;28;113557;-74
2022/01/19 05:09:01;;;;;;;28.20;11.90;;;;;;;5.54;63.41;102704.41;4976720;28;113831;-74
2022/01/19 05:14:16;;;;;;;25.10;11.48;;;;;;;5.58;63.39;102700.91;4989436;28;123145;-74
2022/01/19 05:16:44;;;;;;;23.92;11.05;;;;;;;5.60;63.51;102704.44;4971909;28;114751;-74
2022/01/19 05:19:12;;;;;;;31.05;11.98;;;;;;;5.61;63.16;102716.72;4974816;28;115004;-74
2022/01/19 05:21:43;;;;;;;29.48;12.25;;;;;;;5.63;63.16;102712.34;4987522;28;123450;-74
2022/01/19 05:24:10;;;;;;;24.58;12.25;;;;;;;5.64;63.35;102716.72;4988922;28;123978;-74
2022/01/19 05:26:41;;;;;;;25.88;11.85;;;;;;;5.64;63.14;102711.47;4987997;28;113497;-74
2022/01/19 05:29:11;;;;;;;31.92;12.38;;;;;;;5.65;63.38;102713.22;4971667;28;113599;-74
2022/01/19 05:31:38;;;;;;;30.30;12.18;;;;;;;5.66;63.21;102709.72;4987332;28;123581;-74
2022/01/19 05:34:06;;;;;;;30.08;12.15;;;;;;;5.68;63.46;102708.84;4987804;28;123204;-74
2022/01/19 05:36:42;;;;;;;28.67;11.77;;;;;;;5.70;63.46;102699.22;4987395;28;113698;-74
2022/01/19 05:39:24;;;;;;;26.40;11.93;;;;;;;5.70;63.29;102700.09;4973071;28;113997;-74
2022/01/19 05:42:14;;;;;;;28.30;11.43;;;;;;;5.70;63.65;102710.63;4988116;28;123302;-74
2022/01/19 05:44:43;;;;;;;25.92;11.52;;;;;;;5.72;63.41;102708.88;4987068;28;124573;-74
2022/01/19 05:47:16;;;;;;;34.65;13.50;;;;;;;5.74;63.49;102706.25;4987542;28;113454;-74
2022/01/19 05:49:44;;;;;;;29.15;12.25;;;;;;;5.75;63.56;102713.28;5003256;28;113710;-75
2022/01/19 05:52:13;;;;;;;30.45;12.05;;;;;;;5.76;63.44;102704.50;4987306;28;122275;-74
2022/01/19 05:54:41;;;;;;;30.27;11.73;;;;;;;5.78;63.25;102708.03;4986761;28;123416;-74
2022/01/19 05:57:09;;;;;;;31.38;12.13;;;;;;;5.81;63.57;102700.16;4971010;28;114107;-74
2022/01/19 05:59:42;;;;;;;29.38;12.82;;;;;;;5.82;63.54;102704.53;4986706;28;113412;-74
2022/01/19 06:02:10;;;;;;;28.25;11.73;;;;;;;5.83;63.27;102696.66;4986406;28;125193;-74
2022/01/19 06:04:37;;;;;;;26.75;11.80;;;;;;;5.87;63.44;102702.81;4986696;28;123514;-74
2022/01/19 06:07:04;;;;;;;27.88;12.63;;;;;;;5.88;63.49;102699.31;4988386;28;116277;-75
2022/01/19 06:10:00;;;;;;;30.35;11.82;;;;;;;5.88;63.11;102694.06;4972883;28;114503;-74
2022/01/19 06:12:30;;;;;;;22.98;10.80;;;;;;;5.90;63.33;102692.31;4986531;28;124017;-77
2022/01/19 06:14:59;;;;;;;25.08;11.57;;;;;;;5.93;63.66;102684.41;4986576;28;123454;-74
2022/01/19 06:17:27;;;;;;;25.13;11.63;;;;;;;5.95;63.56;102685.38;4976670;28;112750;-74
2022/01/19 06:19:58;;;;;;;23.25;11.52;;;;;;;5.96;63.34;102681.84;4987095;28;113201;-74
2022/01/19 06:22:26;;;;;;;27.52;11.93;;;;;;;5.98;63.48;102685.34;4986831;28;123666;-74
2022/01/19 06:24:53;;;;;;;26.70;11.20;;;;;;;5.99;63.40;102681.88;4986722;28;123741;-75
2022/01/19 06:27:21;;;;;;;28.17;12.23;;;;;;;6.01;63.37;102685.38;4987178;28;113863;-74
2022/01/19 06:29:48;;;;;;;25.15;11.68;;;;;;;6.03;63.24;102672.25;4986902;28;113501;-75
2022/01/19 06:32:16;;;;;;;26.55;11.15;;;;;;;6.04;63.23;102669.59;4969429;28;123161;-75
2022/01/19 06:34:44;;;;;;;30.25;12.77;;;;;;;6.06;63.36;102663.47;4987295;28;123515;-74
2022/01/19 06:37:31;;;;;;;22.33;11.10;;;;;;;6.07;63.39;102659.97;4967609;28;114828;-74
2022/01/19 06:40:05;;;;;;;26.20;11.32;;;;;;;6.08;63.35;102659.09;4970332;28;113999;-75
2022/01/19 06:42:36;;;;;;;28.25;11.35;;;;;;;6.10;63.25;102662.59;4989970;28;123405;-74
2022/01/19 06:45:04;;;;;;;24.90;11.25;;;;;;;6.09;63.33;102655.59;4986386;28;123481;-74
2022/01/19 06:47:32;;;;;;;30.00;12.20;;;;;;;6.09;63.31;102660.84;4986435;28;114790;-74
2022/01/19 06:50:01;;;;;;;25.98;12.32;;;;;;;6.07;63.39;102647.69;4986288;28;113342;-75
2022/01/19 06:52:33;;;;;;;22.58;11.48;;;;;;;6.07;63.54;102646.84;4986543;28;123696;-75
2022/01/19 06:55:00;;;;;;;23.45;10.55;;;;;;;6.10;63.58;102641.56;4986625;28;123799;-74
2022/01/19 06:57:27;;;;;;;25.05;11.30;;;;;;;6.10;63.39;102631.91;4986426;28;114477;-74
2022/01/19 07:00:19;;;;;;;24.58;11.27;;;;;;;6.10;62.87;102621.38;4986329;28;114310;-75
2022/01/19 07:03:09;;;;;;;24.05;11.65;;;;;;;6.10;63.33;102625.78;4985729;28;123543;-75
2022/01/19 07:05:47;;;;;;;25.15;10.95;;;;;;;6.11;63.40;102622.28;4983557;28;123254;-75
2022/01/19 07:08:41;;;;;;;23.38;10.82;;;;;;;6.12;63.32;102618.75;4988619;28;114456;-75
2022/01/19 07:11:08;;;;;;;23.83;10.90;;;;;;;6.13;63.16;102615.28;4985871;28;113223;-74
2022/01/19 07:13:36;;;;;;;24.17;10.82;;;;;;;6.15;63.23;102618.78;4981895;28;123166;-74
2022/01/19 07:16:04;;;;;;;23.17;10.93;;;;;;;6.17;63.12;102611.75;4989898;28;123321;-75
2022/01/19 07:18:32;;;;;;;25.50;10.93;;;;;;;6.16;63.31;102615.25;4990006;28;114906;-75
2022/01/19 07:21:00;;;;;;;21.60;10.65;;;;;;;6.16;63.30;102610.00;4973690;28;113628;-76
2022/01/19 07:23:59;;;;;;;22.33;10.65;;;;;;;6.16;63.26;102615.25;4980372;28;124198;-75
2022/01/19 07:26:26;;;;;;;25.33;11.20;;;;;;;6.16;63.33;102605.63;4974419;28;122876;-75
2022/01/19 07:28:53;;;;;;;21.42;10.65;;;;;;;6.18;63.45;102603.00;4990462;28;112606;-75
2022/01/19 07:31:21;;;;;;;21.95;10.52;;;;;;;6.19;63.47;102600.34;4973484;28;113242;-75
2022/01/19 07:33:50;;;;;;;22.67;11.07;;;;;;;6.21;63.11;102597.72;4989528;28;123619;-75
2022/01/19 07:36:17;;;;;;;29.73;11.07;;;;;;;6.23;63.13;102588.09;4990303;28;123120;-75
2022/01/19 07:38:45;;;;;;;24.35;10.40;;;;;;;6.24;63.13;102597.75;4990329;28;114009;-75
2022/01/19 07:41:12;;;;;;;23.95;11.02;;;;;;;6.27;63.26;102597.72;4989857;28;113759;-75
2022/01/19 07:43:46;;;;;;;21.75;10.75;;;;;;;6.27;62.97;102603.00;4989338;28;123690;-75
2022/01/19 07:46:32;;;;;;;24.63;11.00;;;;;;;6.28;63.32;102602.13;4991752;28;124702;-75
2022/01/19 07:49:11;;;;;;;22.52;10.65;;;;;;;6.27;63.25;102603.00;4989687;28;115805;-75
2022/01/19 07:51:53;;;;;;;23.88;11.02;;;;;;;6.28;63.16;102593.38;4990712;28;115865;-75
2022/01/19 07:54:33;;;;;;;23.65;11.13;;;;;;;6.28;63.32;102599.50;4989681;28;124480;-75
2022/01/19 07:57:08;;;;;;;23.95;10.82;;;;;;;6.28;63.31;102599.50;4975035;28;123558;-75
2022/01/19 07:59:47;;;;;;;23.17;10.52;;;;;;;6.27;63.06;102595.09;4991960;28;114490;-76
2022/01/19 08:02:16;;;;;;;22.17;10.65;;;;;;;6.26;63.19;102582.84;4972942;28;112984;-75
2022/01/19 08:05:04;;;;;;;23.83;10.98;;;;;;;6.29;63.11;102587.22;4989773;28;124206;-75
2022/01/19 08:07:33;;;;;;;22.08;10.25;;;;;;;6.27;63.26;102576.69;4990143;28;122972;-75
2022/01/19 08:10:04;;;;;;;21.67;10.20;;;;;;;6.27;62.99;102581.94;4989802;28;113679;-76
2022/01/19 08:12:32;;;;;;;26.02;11.68;;;;;;;6.28;63.21;102578.44;4990483;28;113326;-75
2022/01/19 08:14:59;;;;;;;22.58;11.00;;;;;;;6.31;63.30;102578.47;4989337;28;124376;-75
2022/01/19 08:17:32;;;;;;;23.67;10.80;;;;;;;6.33;63.54;102571.44;4990854;28;122993;-75
2022/01/19 08:19:59;;;;;;;20.08;10.25;;;;;;;6.36;63.38;102563.53;4990622;28;113404;-75
2022/01/19 08:22:27;;;;;;;22.38;11.00;;;;;;;6.39;63.29;102563.56;4989627;28;113919;-75
2022/01/19 08:25:15;;;;;;;21.27;10.35;;;;;;;6.40;63.44;102564.41;4988686;28;123413;-75
2022/01/19 08:27:42;;;;;;;22.85;10.90;;;;;;;6.40;63.13;102557.41;5006145;28;123138;-75
2022/01/19 08:30:12;;;;;;;21.48;10.25;;;;;;;6.43;63.29;102557.41;4989416;28;114000;-75
2022/01/19 08:32:40;;;;;;;22.75;10.82;;;;;;;6.45;63.40;102564.44;4990869;28;113797;-75
2022/01/19 08:35:15;;;;;;;21.65;10.75;;;;;;;6.47;63.02;102570.56;4988109;28;124452;-75
2022/01/19 08:38:11;;;;;;;21.20;10.23;;;;;;;6.49;63.37;102560.91;4970221;28;124322;-75
2022/01/19 08:41:04;;;;;;;22.52;10.40;;;;;;;6.50;63.41;102552.13;4986729;28;114202;-75
2022/01/19 08:43:33;;;;;;;22.17;10.50;;;;;;;6.52;63.47;102542.50;4973401;28;114208;-75
2022/01/19 08:46:00;;;;;;;22.88;10.57;;;;;;;6.53;63.16;102541.59;4988779;28;124523;-75
2022/01/19 08:48:47;;;;;;;21.17;10.88;;;;;;;6.56;63.49;102541.63;4990640;28;124365;-76
2022/01/19 08:51:43;;;;;;;22.67;10.95;;;;;;;6.58;63.43;102539.84;4971028;28;115607;-75
2022/01/19 08:54:25;;;;;;;20.35;9.73;;;;;;;6.60;63.56;102532.84;4974824;28;113322;-75
2022/01/19 08:57:05;;;;;;;21.30;10.25;;;;;;;6.61;63.37;102530.19;4988875;28;124765;-75
2022/01/19 08:59:32;;;;;;;21.58;10.50;;;;;;;6.65;63.39;102535.44;4989911;28;123083;-76
2022/01/19 09:02:06;;;;;;;18.65;9.98;;;;;;;6.68;63.17;102531.06;4987548;28;114329;-76
2022/01/19 09:04:33;;;;;;;22.08;10.88;;;;;;;6.69;63.40;102517.03;4991347;28;113177;-76
2022/01/19 09:07:00;;;;;;;24.55;10.80;;;;;;;6.69;63.06;102522.28;4988781;28;124038;-76
2022/01/19 09:09:27;;;;;;;20.88;11.05;;;;;;;6.71;63.37;102525.78;4989528;28;122810;-75
2022/01/19 09:11:54;;;;;;;24.77;10.98;;;;;;;6.72;63.55;102517.00;4989544;28;113755;-75
2022/01/19 09:14:22;;;;;;;20.60;9.80;;;;;;;6.74;63.12;102510.00;4991058;28;114095;-76
2022/01/19 09:16:49;;;;;;;22.67;11.32;;;;;;;6.77;63.34;102499.44;4989093;28;124239;-75
2022/01/19 09:19:18;;;;;;;21.17;10.98;;;;;;;6.79;63.24;102492.41;4972318;28;123089;-76
2022/01/19 09:21:47;;;;;;;20.90;10.27;;;;;;;6.82;63.17;102492.41;4989291;28;114134;-76
2022/01/19 09:24:14;;;;;;;23.13;11.77;;;;;;;6.85;63.04;102490.66;4989481;28;113743;-75
2022/01/19 09:26:42;;;;;;;22.00;10.82;;;;;;;6.87;63.27;102488.88;4988927;28;123417;-75
2022/01/19 09:29:09;;;;;;;21.38;10.40;;;;;;;6.89;63.06;102487.13;4985380;28;123879;-76
2022/01/19 09:31:39;;;;;;;22.55;10.35;;;;;;;6.91;63.42;102485.34;4968620;28;114595;-75
2022/01/19 09:34:09;;;;;;;22.52;10.95;;;;;;;6.91;63.42;102485.34;4984681;28;115143;-75
2022/01/19 09:36:44;;;;;;;21.63;10.85;;;;;;;6.94;63.53;102480.97;4969029;28;124042;-75
2022/01/19 09:39:19;;;;;;;22.10;10.98;;;;;;;6.97;63.29;102480.09;4952720;28;124138;-75
2022/01/19 09:41:48;;;;;;;20.07;10.37;;;;;;;6.98;63.39;102471.28;4967975;28;114649;-75
2022/01/19 09:44:21;;;;;;;22.55;11.23;;;;;;;6.99;63.47;102468.66;4993512;28;113664;-75
2022/01/19 09:46:49;;;;;;;20.85;10.30;;;;;;;7.02;63.43;102470.38;4988359;28;123514;-75
2022/01/19 09:49:19;;;;;;;22.15;10.75;;;;;;;7.04;63.26;102467.75;4988902;28;123588;-75
2022/01/19 09:51:48;;;;;;;21.20;10.60;;;;;;;7.06;63.47;102471.25;4990074;28;114813;-75
2022/01/19 09:54:24;;;;;;;18.60;10.07;;;;;;;7.09;63.60;102474.75;4987211;28;114187;-75
2022/01/19 09:56:52;;;;;;;22.10;10.82;;;;;;;7.12;63.54;102466.84;4989243;28;123908;-75
2022/01/19 09:59:20;;;;;;;21.38;10.05;;;;;;;7.16;63.20;102455.41;4988099;28;123041;-76
2022/01/19 10:01:54;;;;;;;21.42;11.13;;;;;;;7.18;63.36;102448.38;4972066;28;113407;-75
2022/01/19 10:04:27;;;;;;;19.83;10.60;;;;;;;7.19;63.15;102439.56;4988084;28;114055;-75
2022/01/19 10:07:24;;;;;;;23.27;10.25;;;;;;;7.21;63.14;102442.19;4992808;28;123154;-75
2022/01/19 10:09:53;;;;;;;20.80;10.60;;;;;;;7.23;63.40;102445.69;4989830;28;123665;-75
2022/01/19 10:18:17;;;;;;;19.13;9.80;;;;;;;7.29;63.35;102439.50;5021521;28;123390;-75
2022/01/19 10:20:46;;;;;;;21.13;10.25;;;;;;;7.32;63.12;102428.97;4995092;28;124689;-75
2022/01/19 10:23:35;;;;;;;19.35;10.93;;;;;;;7.35;63.51;102426.31;4978987;28;114880;-75
2022/01/19 10:26:06;;;;;;;21.48;11.13;;;;;;;7.37;63.48;102419.28;5008111;28;113452;-75
2022/01/19 10:28:53;;;;;;;21.05;10.25;;;;;;;7.39;63.00;102425.41;4989179;28;124227;-75
2022/01/19 10:31:20;;;;;;;21.38;10.23;;;;;;;7.43;63.23;102429.78;4984990;28;124573;-76
2022/01/19 10:34:15;;;;;;;22.42;10.50;;;;;;;7.46;63.06;102420.97;4989742;28;114062;-75
2022/01/19 10:36:51;;;;;;;20.08;10.32;;;;;;;7.50;63.19;102413.03;4988292;28;115070;-75
2022/01/19 10:39:20;;;;;;;20.95;10.07;;;;;;;7.52;63.13;102406.00;4987214;28;122884;-75
2022/01/19 10:42:09;;;;;;;18.88;10.05;;;;;;;7.54;63.08;102398.94;5003214;28;123404;-75
2022/01/19 10:44:49;;;;;;;21.17;11.45;;;;;;;7.57;63.41;102388.38;4972453;28;113284;-75
2022/01/19 10:47:41;;;;;;;22.88;10.88;;;;;;;7.62;63.24;102388.34;4990990;28;115200;-75
2022/01/19 10:50:10;;;;;;;20.00;10.00;;;;;;;7.64;63.12;102388.31;4988122;28;124136;-75
2022/01/19 10:52:44;;;;;;;20.02;10.10;;;;;;;7.66;63.48;102392.69;4975089;28;122731;-75
2022/01/19 10:55:19;;;;;;;;;;;;;;;7.66;63.38;102387.41;4990897;28;114403;-75
2022/01/19 10:57:48;;;;;;;18.52;9.05;;;;;;;7.70;62.98;102383.00;4996126;28;113882;-75
2022/01/19 11:00:36;;;;;;;19.73;10.00;;;;;;;7.71;63.17;102382.13;4993376;28;124359;-75
2022/01/19 11:03:21;;;;;;;21.95;11.05;;;;;;;7.74;63.35;102376.81;4991182;28;123612;-75
2022/01/19 11:05:52;;;;;;;21.73;10.50;;;;;;;7.74;63.15;102363.63;5012770;28;113459;-75
2022/01/19 11:08:21;;;;;;;22.63;10.63;;;;;;;7.75;63.34;102371.53;5003871;28;114812;-75
2022/01/19 11:10:51;;;;;;;19.60;10.35;;;;;;;7.78;63.06;102363.59;4998279;28;124023;-75
2022/01/19 11:13:29;;;;;;;23.88;10.00;;;;;;;7.83;63.39;102358.25;5013556;28;122649;-75
2022/01/19 11:15:59;;;;;;;20.90;10.38;;;;;;;7.85;63.20;102351.22;5008880;28;113535;-74
2022/01/19 11:18:29;;;;;;;18.85;9.52;;;;;;;7.87;62.82;102353.84;5016893;28;115628;-75
2022/01/19 11:21:05;;;;;;;21.17;10.18;;;;;;;7.88;62.90;102343.28;5008510;28;126791;-75
2022/01/19 11:24:00;;;;;;;21.80;9.90;;;;;;;7.91;62.90;102340.63;5012390;28;123750;-74
2022/01/19 11:26:30;;;;;;;18.50;9.73;;;;;;;7.94;63.11;102335.28;5012442;28;114626;-75
2022/01/19 11:29:19;;;;;;;21.20;10.00;;;;;;;7.94;62.79;102330.03;5010619;28;114305;-74
2022/01/19 11:31:49;;;;;;;20.35;10.98;;;;;;;7.96;62.78;102322.97;5010926;28;123502;-74
2022/01/19 11:34:43;;;;;;;20.10;10.23;;;;;;;7.98;62.93;102321.19;5012600;28;125993;-75
2022/01/19 11:37:10;;;;;;;18.67;9.55;;;;;;;7.99;62.98;102312.38;5013451;28;114181;-75
2022/01/19 11:40:09;;;;;;;20.50;9.98;;;;;;;8.02;62.90;102313.25;5026222;28;114068;-75
2022/01/19 11:42:36;;;;;;;20.30;9.95;;;;;;;8.05;63.13;102310.59;5011560;28;123551;-75
2022/01/19 11:45:07;;;;;;;19.58;10.02;;;;;;;8.06;62.93;102299.13;5010806;28;124402;-76
2022/01/19 11:47:34;;;;;;;18.60;10.07;;;;;;;8.08;63.21;102286.78;4991906;28;114303;-75
2022/01/19 11:50:18;;;;;;;19.55;10.10;;;;;;;8.10;63.05;102285.00;4998211;28;113431;-76
2022/01/19 11:52:47;;;;;;;20.60;10.25;;;;;;;8.12;62.73;102280.59;4990678;28;125272;-76
2022/01/19 11:55:26;;;;;;;22.67;10.27;;;;;;;8.13;63.11;102274.41;4992075;28;123725;-76
2022/01/19 11:58:20;;;;;;;21.98;11.05;;;;;;;8.12;63.00;102265.63;4974171;28;113783;-76
2022/01/19 12:00:53;;;;;;;19.65;10.07;;;;;;;8.14;62.69;102263.84;4969049;28;113846;-76
2022/01/19 12:03:28;;;;;;;23.35;11.20;;;;;;;8.16;63.10;102271.75;4985580;28;122589;-76
2022/01/19 12:06:33;;;;;;;21.52;10.70;;;;;;;8.15;62.93;102264.72;4988735;28;124712;-77
2022/01/19 12:09:03;;;;;;;23.90;11.63;;;;;;;8.16;62.93;102261.19;4987013;28;115722;-76
2022/01/19 12:11:34;;;;;;;21.63;11.15;;;;;;;8.18;62.72;102248.84;4990522;28;115336;-76
2022/01/19 12:14:15;;;;;;;23.02;11.48;;;;;;;8.19;62.85;102240.03;4986814;28;124221;-76
2022/01/19 12:17:00;;;;;;;21.45;11.13;;;;;;;8.19;62.83;102229.47;4987655;28;123880;-76
2022/01/19 12:19:38;;;;;;;23.30;11.15;;;;;;;8.21;62.68;102226.81;4987832;28;114197;-76
2022/01/19 12:22:20;;;;;;;22.55;12.27;;;;;;;8.21;62.97;102227.69;4989019;28;113808;-76
2022/01/19 12:25:02;;;;;;;27.63;12.25;;;;;;;8.21;62.68;102227.69;4983191;28;123559;-76
2022/01/19 12:27:31;;;;;;;24.00;12.23;;;;;;;8.22;62.96;102224.16;4991162;28;124046;-75
2022/01/19 12:29:58;;;;;;;22.52;12.32;;;;;;;8.23;62.90;102218.00;4987287;28;113965;-75
2022/01/19 12:32:25;;;;;;;26.40;12.63;;;;;;;8.24;62.72;102193.34;4989287;28;113826;-75
2022/01/19 12:35:12;;;;;;;23.85;12.25;;;;;;;8.24;62.99;102201.25;4990283;28;123725;-75
2022/01/19 12:37:55;;;;;;;26.75;13.15;;;;;;;8.24;63.08;102201.25;4967181;28;123178;-76
2022/01/19 12:40:24;;;;;;;22.85;12.00;;;;;;;8.25;62.71;102208.31;4985396;28;114280;-75
2022/01/19 12:42:55;;;;;;;26.00;12.85;;;;;;;8.27;62.88;102206.50;4992382;28;114362;-76
2022/01/19 12:45:28;;;;;;;27.45;13.40;;;;;;;8.29;62.96;102202.06;4987853;28;124108;-76
2022/01/19 12:48:04;;;;;;;29.45;13.63;;;;;;;8.32;62.81;102194.09;4988860;28;123524;-76
2022/01/19 12:50:32;;;;;;;27.63;12.75;;;;;;;8.34;62.73;102176.50;4987360;28;114700;-76
2022/01/19 12:53:11;;;;;;;26.23;13.18;;;;;;;8.34;63.02;102160.66;4973093;28;112981;-76
2022/01/19 12:55:43;;;;;;;28.33;13.15;;;;;;;8.36;62.81;102153.59;4972866;28;123362;-76
2022/01/19 12:58:15;;;;;;;26.48;13.68;;;;;;;8.41;62.97;102155.28;4989932;28;122835;-76
2022/01/19 13:00:47;;;;;;;26.15;13.60;;;;;;;8.43;62.78;102153.53;4988624;28;113955;-76
2022/01/19 13:03:17;;;;;;;29.15;13.48;;;;;;;8.43;62.64;102148.25;4989513;28;114501;-76
2022/01/19 13:06:02;;;;;;;30.77;14.65;;;;;;;8.45;62.53;102151.72;4990152;28;124171;-75
2022/01/19 13:08:33;;;;;;;28.55;14.15;;;;;;;8.44;62.40;102149.97;4988881;28;123234;-76